Time;durP1;ratioP1;P1;durP2;ratioP2;P2;SDS_P1;SDS_P2;PMS_P1;PMS_P2;Temp;Humidity;BMP_temperature;BMP_pressure;BME280_temperature;BME280_humidity;BME280_pressure;Samples;Min_cycle;Max_cycle;Signal;HPM_P1;HPM_P2
2023/03/08 00:01:10;;;;;;;13.82;10.05;;;4.40;1.00;;;;;;5098535;28;20402;-79
2023/03/08 00:03:35;;;;;;;14.55;9.70;;;4.70;99.90;;;;;;5098043;28;20871;-79
2023/03/08 00:06:06;;;;;;;12.30;9.60;;;4.60;1.00;;;;;;5097092;28;20382;-79
2023/03/08 00:08:31;;;;;;;13.75;10.30;;;4.60;1.00;;;;;;5097553;28;20390;-79
2023/03/08 00:10:57;;;;;;;12.03;9.57;;;4.50;1.00;;;;;;5098242;28;20788;-79
2023/03/08 00:13:22;;;;;;;11.70;9.30;;;4.60;1.00;;;;;;5097697;28;20397;-79
2023/03/08 00:15:48;;;;;;;12.18;9.57;;;4.50;1.00;;;;;;5096993;28;20390;-79
2023/03/08 00:18:13;;;;;;;15.85;10.25;;;4.40;99.90;;;;;;5096934;28;20407;-78
2023/03/08 00:20:39;;;;;;;12.73;9.60;;;4.60;99.90;;;;;;5097304;28;20410;-78
2023/03/08 00:23:04;;;;;;;12.68;9.10;;;4.70;99.90;;;;;;5095976;28;20453;-78
2023/03/08 00:25:30;;;;;;;11.33;9.17;;;4.70;99.90;;;;;;5095120;28;20485;-79
2023/03/08 00:27:55;;;;;;;13.00;9.30;;;4.50;99.90;;;;;;5096123;28;20419;-79
2023/03/08 00:30:21;;;;;;;13.23;9.80;;;4.70;99.90;;;;;;5096364;28;20922;-79
2023/03/08 00:32:47;;;;;;;13.00;8.33;;;6.70;99.90;;;;;;5096745;28;20394;-78
2023/03/08 00:35:12;;;;;;;12.10;9.30;;;4.70;99.90;;;;;;5095321;28;20895;-79
2023/03/08 00:37:38;;;;;;;11.10;8.87;;;4.70;99.90;;;;;;5096873;28;20366;-79
2023/03/08 00:40:04;;;;;;;11.23;8.70;;;4.60;74.80;;;;;;5096956;28;20378;-79
2023/03/08 00:42:30;;;;;;;9.80;8.10;;;4.60;24.00;;;;;;5096172;28;20434;-79
2023/03/08 00:44:55;;;;;;;11.00;8.17;;;4.60;1.00;;;;;;5099800;28;20390;-79
2023/03/08 00:47:21;;;;;;;9.87;8.17;;;4.60;99.90;;;;;;5102105;28;20744;-78
2023/03/08 00:49:46;;;;;;;12.97;8.77;;;4.40;14.80;;;;;;5110185;28;20386;-79
2023/03/08 00:52:12;;;;;;;12.35;8.77;;;4.50;99.90;;;;;;5104806;28;20385;-78
2023/03/08 00:54:37;;;;;;;11.27;8.57;;;4.60;8.70;;;;;;5102954;28;20469;-79
2023/03/08 00:57:03;;;;;;;12.93;8.60;;;4.10;8.90;;;;;;5096776;28;20470;-79
2023/03/08 00:59:28;;;;;;;10.10;7.90;;;4.60;1.00;;;;;;5079776;28;20399;-79
2023/03/08 01:01:54;;;;;;;10.30;7.30;;;4.70;1.00;;;;;;5087093;28;20488;-79
2023/03/08 01:04:19;;;;;;;10.20;7.20;;;4.80;1.00;;;;;;5101161;28;20378;-79
2023/03/08 01:06:45;;;;;;;9.07;7.30;;;4.50;1.00;;;;;;5099459;28;20491;-78
2023/03/08 01:09:11;;;;;;;8.97;7.27;;;4.80;1.00;;;;;;5100052;28;20386;-80
2023/03/08 01:11:37;;;;;;;9.60;7.20;;;4.70;1.00;;;;;;5101055;28;20810;-79
2023/03/08 01:14:04;;;;;;;9.52;6.90;;;5.00;1.00;;;;;;5100167;28;20382;-79
2023/03/08 01:16:32;;;;;;;8.00;7.10;;;4.70;1.00;;;;;;5097635;28;20406;-79
2023/03/08 01:18:58;;;;;;;8.77;6.55;;;4.80;1.00;;;;;;5097366;28;20404;-78
2023/03/08 01:21:25;;;;;;;9.07;6.90;;;4.70;1.00;;;;;;5099874;28;20410;-79
2023/03/08 01:23:51;;;;;;;9.63;7.00;;;5.00;1.00;;;;;;5099384;28;20374;-79
2023/03/08 01:26:19;;;;;;;8.40;7.40;;;4.50;1.00;;;;;;5101017;28;20386;-79
2023/03/08 01:28:45;;;;;;;9.73;7.07;;;5.20;1.00;;;;;;5098942;28;20390;-79
2023/03/08 01:31:20;;;;;;;9.18;6.35;;;4.90;1.00;;;;;;5097628;28;20394;-78
2023/03/08 01:33:46;;;;;;;10.15;7.05;;;5.00;99.90;;;;;;5100574;28;20401;-78
2023/03/08 01:36:14;;;;;;;8.65;6.00;;;4.80;99.90;;;;;;5099052;28;20378;-78
2023/03/08 01:38:41;;;;;;;8.52;7.07;;;4.90;1.00;;;;;;5096831;28;20386;-78
2023/03/08 01:41:11;;;;;;;9.13;6.00;;;5.00;1.00;;;;;;5095979;28;20493;-78
2023/03/08 01:43:38;;;;;;;8.27;6.15;;;4.90;1.00;;;;;;5100308;28;20384;-79
2023/03/08 01:46:29;;;;;;;9.15;6.90;;;4.80;99.90;;;;;;5100205;28;20378;-79
2023/03/08 01:49:00;;;;;;;9.80;6.72;;;5.00;1.00;;;;;;5100078;28;20378;-79
2023/03/08 01:51:43;;;;;;;8.20;7.07;;;5.00;99.90;;;;;;5097870;28;20396;-80
2023/03/08 01:54:34;;;;;;;8.70;6.40;;;4.90;99.90;;;;;;5097288;28;20744;-79
2023/03/08 01:57:07;;;;;;;7.75;6.03;;;4.90;1.00;;;;;;5095482;28;20410;-79
2023/03/08 01:59:34;;;;;;;8.02;6.30;;;4.80;1.00;;;;;;5079568;28;20387;-79
2023/03/08 02:02:03;;;;;;;10.80;7.10;;;4.80;1.00;;;;;;5084004;28;20417;-78
2023/03/08 02:04:29;;;;;;;8.90;6.90;;;4.80;1.00;;;;;;5100974;28;20875;-79
2023/03/08 02:06:54;;;;;;;10.47;7.23;;;4.80;1.00;;;;;;5099577;28;20420;-78
2023/03/08 02:09:20;;;;;;;9.13;7.00;;;4.80;1.00;;;;;;5102271;28;20382;-79
2023/03/08 02:11:47;;;;;;;8.73;6.93;;;4.80;1.00;;;;;;5101799;28;20382;-79
2023/03/08 02:14:12;;;;;;;8.27;6.60;;;4.60;1.00;;;;;;5100509;28;20484;-79
2023/03/08 02:16:38;;;;;;;8.90;6.83;;;4.60;1.00;;;;;;5100914;28;20402;-79
2023/03/08 02:19:11;;;;;;;9.43;7.60;;;4.50;1.00;;;;;;5100038;28;20752;-79
2023/03/08 02:21:36;;;;;;;10.75;7.65;;;4.60;1.00;;;;;;5100941;28;20405;-79
2023/03/08 02:24:17;;;;;;;8.27;6.70;;;4.90;1.00;;;;;;5099064;28;20392;-79
2023/03/08 02:26:42;;;;;;;11.23;7.38;;;5.00;1.00;;;;;;5100491;28;20754;-79
2023/03/08 02:29:08;;;;;;;9.50;7.10;;;4.50;1.00;;;;;;5099993;28;20543;-79
2023/03/08 02:31:33;;;;;;;8.77;6.70;;;4.90;1.00;;;;;;5101184;28;20767;-79
2023/03/08 02:33:59;;;;;;;9.77;7.10;;;4.90;1.00;;;;;;5101477;28;20485;-79
2023/03/08 02:36:25;;;;;;;7.67;6.77;;;4.30;1.00;;;;;;5103245;28;20496;-79
2023/03/08 02:38:50;;;;;;;8.88;6.80;;;5.00;1.00;;;;;;5099863;28;20401;-79
2023/03/08 02:41:16;;;;;;;9.88;7.03;;;;;;;;;;5097854;28;20803;-79
2023/03/08 02:43:41;;;;;;;8.50;6.38;;;5.20;1.00;;;;;;5098637;28;20887;-79
2023/03/08 02:46:10;;;;;;;10.50;6.93;;;5.10;1.00;;;;;;5097264;28;20556;-79
2023/03/08 02:48:36;;;;;;;7.50;6.47;;;5.10;1.00;;;;;;5097964;28;20425;-79
2023/03/08 02:51:01;;;;;;;6.93;6.23;;;5.00;1.00;;;;;;5098535;28;20390;-79
2023/03/08 02:53:27;;;;;;;9.50;7.47;;;5.10;1.00;;;;;;5097214;28;20389;-79
2023/03/08 02:55:52;;;;;;;10.73;7.43;;;5.00;1.00;;;;;;5099175;28;20778;-79
2023/03/08 02:58:18;;;;;;;9.25;6.90;;;5.10;58.60;;;;;;5098971;28;20418;-79
2023/03/08 03:00:43;;;;;;;10.07;7.03;;;4.90;1.00;;;;;;5097274;28;20375;-79
2023/03/08 03:03:09;;;;;;;11.20;6.63;;;5.30;1.00;;;;;;5099353;28;20406;-79
2023/03/08 03:05:39;;;;;;;7.87;6.43;;;5.30;1.00;;;;;;5098664;28;20755;-79
2023/03/08 03:08:04;;;;;;;7.90;6.70;;;5.40;1.00;;;;;;5098732;28;20880;-79
2023/03/08 03:10:30;;;;;;;9.57;6.90;;;5.20;1.00;;;;;;5098946;28;20378;-79
2023/03/08 03:12:56;;;;;;;9.93;7.23;;;5.50;1.00;;;;;;5096848;28;20420;-79
2023/03/08 03:15:21;;;;;;;8.67;6.83;;;5.40;1.00;;;;;;5098052;28;20401;-79
2023/03/08 03:17:47;;;;;;;8.97;6.40;;;5.30;1.00;;;;;;5097775;28;20382;-79
2023/03/08 03:20:12;;;;;;;10.73;6.77;;;5.50;1.00;;;;;;5097299;28;20389;-77
2023/03/08 03:22:38;;;;;;;9.60;7.20;;;5.50;1.00;;;;;;5098487;28;20400;-79
2023/03/08 03:25:04;;;;;;;9.80;6.70;;;5.60;1.00;;;;;;5099116;28;20389;-79
2023/03/08 03:27:30;;;;;;;9.20;6.78;;;5.70;1.00;;;;;;5097531;28;20390;-78
2023/03/08 03:29:55;;;;;;;9.00;6.53;;;5.50;1.00;;;;;;5096383;28;20389;-79
2023/03/08 03:32:21;;;;;;;7.72;6.70;;;5.10;1.00;;;;;;5098286;28;20423;-79
2023/03/08 03:34:46;;;;;;;9.30;6.90;;;5.40;99.90;;;;;;5098182;28;20779;-79
2023/03/08 03:37:12;;;;;;;6.93;6.00;;;5.30;99.90;;;;;;5096918;28;20390;-79
2023/03/08 03:39:38;;;;;;;8.73;6.40;;;5.30;16.20;;;;;;5097061;28;20752;-79
2023/03/08 03:42:05;;;;;;;7.18;5.65;;;5.10;1.00;;;;;;5099052;28;20429;-79
2023/03/08 03:44:31;;;;;;;9.98;6.75;;;5.00;1.30;;;;;;5103690;28;20394;-79
2023/03/08 03:46:57;;;;;;;7.63;6.10;;;4.80;88.10;;;;;;5104319;28;20737;-79
2023/03/08 03:49:22;;;;;;;7.95;6.70;;;5.20;99.90;;;;;;5099523;28;20488;-79
2023/03/08 03:51:48;;;;;;;8.18;6.40;;;4.40;99.90;;;;;;5098912;28;20390;-79
2023/03/08 03:54:14;;;;;;;7.70;6.15;;;4.80;1.00;;;;;;5098146;28;20417;-79
2023/03/08 03:56:40;;;;;;;8.30;6.07;;;4.60;1.00;;;;;;5095048;28;20464;-78
2023/03/08 03:59:05;;;;;;;9.82;7.10;;;4.30;13.30;;;;;;5102270;28;20404;-79
2023/03/08 04:01:31;;;;;;;9.80;6.93;;;4.10;1.00;;;;;;5103885;28;20456;-79
2023/03/08 04:03:57;;;;;;;9.27;6.93;;;4.40;99.90;;;;;;5103277;28;20397;-79
2023/03/08 04:06:31;;;;;;;9.13;6.95;;;4.40;1.00;;;;;;5104611;28;20374;-79
2023/03/08 04:09:04;;;;;;;9.10;7.50;;;4.40;1.00;;;;;;5100182;28;20525;-79
2023/03/08 04:11:36;;;;;;;8.90;7.15;;;4.40;1.00;;;;;;5099425;28;20381;-79
2023/03/08 04:14:03;;;;;;;9.13;7.07;;;6.60;1.00;;;;;;5098270;28;20468;-79
2023/03/08 04:16:31;;;;;;;9.52;6.70;;;4.40;1.00;;;;;;5100028;28;20382;-79
2023/03/08 04:18:59;;;;;;;9.10;7.20;;;4.60;1.00;;;;;;5096449;28;20398;-79
2023/03/08 04:21:25;;;;;;;9.85;7.28;;;4.50;1.00;;;;;;5096763;28;20410;-79
2023/03/08 04:23:51;;;;;;;9.40;7.70;;;4.40;1.00;;;;;;5098634;28;20388;-79
2023/03/08 04:26:17;;;;;;;9.55;7.63;;;4.30;1.00;;;;;;5097511;28;20398;-79
2023/03/08 04:28:43;;;;;;;10.57;8.00;;;4.40;1.00;;;;;;5098183;28;20860;-79
2023/03/08 04:31:19;;;;;;;10.35;7.55;;;4.60;1.00;;;;;;5097202;28;20382;-78
2023/03/08 04:33:46;;;;;;;10.38;7.72;;;3.90;99.90;;;;;;5098023;28;20401;-79
2023/03/08 04:36:11;;;;;;;9.30;7.50;;;4.00;60.80;;;;;;5097810;28;20440;-79
2023/03/08 04:38:37;;;;;;;11.93;8.00;;;4.10;1.00;;;;;;5099507;28;20391;-79
2023/03/08 04:41:06;;;;;;;9.32;7.80;;;4.10;99.90;;;;;;5098642;28;20408;-79
2023/03/08 04:43:32;;;;;;;9.17;7.40;;;4.30;99.90;;;;;;5099420;28;20385;-79
2023/03/08 04:45:59;;;;;;;10.60;7.40;;;4.30;99.90;;;;;;5098608;28;20409;-79
2023/03/08 04:48:25;;;;;;;11.15;7.82;;;4.20;99.90;;;;;;5097770;28;20382;-79
2023/03/08 04:50:55;;;;;;;9.55;7.10;;;4.40;93.10;;;;;;5098991;28;20441;-79
2023/03/08 04:53:21;;;;;;;8.98;7.30;;;4.30;99.90;;;;;;5098924;28;20397;-79
2023/03/08 04:55:47;;;;;;;11.43;7.60;;;4.10;99.90;;;;;;5099153;28;20409;-78
2023/03/08 04:58:13;;;;;;;8.73;6.93;;;4.10;99.90;;;;;;5096685;28;20891;-79
2023/03/08 05:00:39;;;;;;;8.38;7.20;;;4.20;1.00;;;;;;5099162;28;20404;-79
2023/03/08 05:03:05;;;;;;;9.20;7.50;;;4.20;99.90;;;;;;5097268;28;20911;-79
2023/03/08 05:05:31;;;;;;;12.13;7.40;;;;;;;;;;5099454;28;20456;-79
2023/03/08 05:07:58;;;;;;;9.55;7.20;;;4.40;1.00;;;;;;5099347;28;20759;-79
2023/03/08 05:10:24;;;;;;;9.93;7.65;;;4.50;1.00;;;;;;5098618;28;20370;-79
2023/03/08 05:12:50;;;;;;;8.98;7.20;;;4.00;46.60;;;;;;5097457;28;20400;-79
2023/03/08 05:15:15;;;;;;;9.38;7.53;;;4.20;1.00;;;;;;5098472;28;20461;-78
2023/03/08 05:17:41;;;;;;;8.65;7.20;;;4.20;99.90;;;;;;5087173;28;20400;-79
2023/03/08 05:20:07;;;;;;;8.15;7.03;;;4.50;59.30;;;;;;5088999;28;20776;-79
2023/03/08 05:22:33;;;;;;;9.03;7.63;;;4.40;99.90;;;;;;5088650;28;20416;-79
2023/03/08 05:24:58;;;;;;;8.30;7.17;;;4.50;53.30;;;;;;5087234;28;20422;-78
2023/03/08 05:27:24;;;;;;;10.43;7.90;;;4.30;4.50;;;;;;5087108;28;20491;-80
2023/03/08 05:29:51;;;;;;;8.97;7.67;;;5.20;1.00;;;;;;5091106;28;20765;-79
2023/03/08 05:32:17;;;;;;;10.50;7.60;;;4.20;1.00;;;;;;5095055;28;20393;-79
2023/03/08 05:34:42;;;;;;;9.10;7.40;;;4.40;2.20;;;;;;5092837;28;20430;-79
2023/03/08 05:37:08;;;;;;;11.00;7.73;;;4.40;1.00;;;;;;5094260;28;20382;-79
2023/03/08 05:39:33;;;;;;;9.90;7.80;;;4.10;1.00;;;;;;5081830;28;20389;-78
2023/03/08 05:41:59;;;;;;;9.60;7.10;;;4.30;1.00;;;;;;5089249;28;20404;-79
2023/03/08 05:44:24;;;;;;;10.70;7.47;;;4.40;1.00;;;;;;5081214;28;20836;-79
2023/03/08 05:46:50;;;;;;;9.87;8.00;;;3.60;57.90;;;;;;5092722;28;20527;-79
2023/03/08 05:49:16;;;;;;;9.23;7.90;;;4.40;1.00;;;;;;5091566;28;20386;-79
2023/03/08 05:51:41;;;;;;;9.23;7.53;;;4.10;1.00;;;;;;5075726;28;20456;-76
2023/03/08 05:54:07;;;;;;;8.07;6.83;;;4.30;99.90;;;;;;5087510;28;20388;-78
2023/03/08 05:56:32;;;;;;;10.70;7.57;;;4.30;1.00;;;;;;5083590;28;20751;-79
2023/03/08 05:58:58;;;;;;;9.20;7.70;;;3.60;1.00;;;;;;5092281;28;20729;-79
2023/03/08 06:01:25;;;;;;;9.93;7.80;;;4.60;99.90;;;;;;5080809;28;20398;-78
2023/03/08 06:03:53;;;;;;;9.43;7.40;;;4.50;50.50;;;;;;5077970;28;20378;-79
2023/03/08 06:06:19;;;;;;;9.25;7.75;;;4.30;99.90;;;;;;5085766;28;20380;-78
2023/03/08 06:08:45;;;;;;;11.37;7.53;;;4.20;99.90;;;;;;5083838;28;20386;-78
2023/03/08 06:11:12;;;;;;;10.40;7.75;;;4.00;91.70;;;;;;5088367;28;20390;-83
2023/03/08 06:13:38;;;;;;;9.60;7.75;;;4.40;99.90;;;;;;5088756;28;20484;-82
2023/03/08 06:16:04;;;;;;;11.25;7.60;;;4.50;15.90;;;;;;5097664;28;20426;-83
2023/03/08 06:18:30;;;;;;;7.93;7.00;;;4.40;1.00;;;;;;5097960;28;20386;-83
2023/03/08 06:21:10;;;;;;;8.85;7.60;;;4.40;99.90;;;;;;5099046;28;20490;-83
2023/03/08 06:23:36;;;;;;;10.77;7.40;;;4.70;1.00;;;;;;5101361;28;20374;-85
2023/03/08 06:26:04;;;;;;;10.17;8.13;;;4.80;2.50;;;;;;5097532;28;20405;-82
2023/03/08 06:28:30;;;;;;;10.70;8.10;;;4.30;1.00;;;;;;5096006;28;20867;-82
2023/03/08 06:30:56;;;;;;;9.65;7.40;;;4.60;1.00;;;;;;5095590;28;20385;-78
2023/03/08 06:33:25;;;;;;;9.20;7.35;;;4.60;1.00;;;;;;5095107;28;20425;-80
2023/03/08 06:35:59;;;;;;;10.30;7.60;;;4.40;1.00;;;;;;5093526;28;20408;-79
2023/03/08 06:38:26;;;;;;;11.30;7.88;;;4.50;1.00;;;;;;5091934;28;20461;-80
2023/03/08 06:40:51;;;;;;;13.30;8.27;;;4.40;1.00;;;;;;5092104;28;20522;-80
2023/03/08 06:43:17;;;;;;;10.37;8.17;;;4.60;99.90;;;;;;5093599;28;20402;-80
2023/03/08 06:45:43;;;;;;;9.20;7.17;;;4.70;99.90;;;;;;5092836;28;20378;-81
2023/03/08 06:48:09;;;;;;;7.18;6.40;;;4.50;1.00;;;;;;5093211;28;20374;-81
2023/03/08 06:50:34;;;;;;;8.17;7.37;;;4.40;1.00;;;;;;5091898;28;20390;-80
2023/03/08 06:53:00;;;;;;;10.80;7.40;;;5.00;1.00;;;;;;5093521;28;20397;-79
2023/03/08 06:55:26;;;;;;;9.00;6.80;;;;;;;;;;5092219;28;20389;-80
2023/03/08 06:57:54;;;;;;;12.55;8.05;;;4.70;1.00;;;;;;5082476;28;20390;-81
2023/03/08 07:00:20;;;;;;;10.65;7.63;;;4.70;99.90;;;;;;5073471;28;20395;-81
2023/03/08 07:02:47;;;;;;;9.10;7.30;;;4.60;99.90;;;;;;5073222;28;20407;-79
2023/03/08 07:05:14;;;;;;;11.18;8.30;;;4.70;1.00;;;;;;5073699;28;20383;-82
2023/03/08 07:07:43;;;;;;;11.32;8.30;;;4.80;99.90;;;;;;5091472;28;20390;-80
2023/03/08 07:10:11;;;;;;;10.73;8.13;;;4.70;99.90;;;;;;5093465;28;20377;-79
2023/03/08 07:12:39;;;;;;;9.70;7.75;;;4.80;99.90;;;;;;5092698;28;20772;-81
2023/03/08 07:15:09;;;;;;;10.63;8.75;;;4.80;1.00;;;;;;5093183;28;20382;-81
2023/03/08 07:17:35;;;;;;;11.80;8.47;;;4.80;1.00;;;;;;5093312;28;20807;-80
2023/03/08 07:20:04;;;;;;;10.20;7.90;;;4.80;12.10;;;;;;5092122;28;20390;-80
2023/03/08 07:22:30;;;;;;;10.68;8.20;;;5.00;99.90;;;;;;5091955;28;20481;-78
2023/03/08 07:24:55;;;;;;;11.38;8.23;;;5.00;1.00;;;;;;5090933;28;20470;-80
2023/03/08 07:27:21;;;;;;;10.25;8.00;;;4.60;99.90;;;;;;5091050;28;20381;-80
2023/03/08 07:29:46;;;;;;;10.38;8.18;;;4.60;99.90;;;;;;5090458;28;20389;-80
2023/03/08 07:32:12;;;;;;;10.35;7.90;;;4.80;99.90;;;;;;5085720;28;20409;-80
2023/03/08 07:34:38;;;;;;;9.77;7.57;;;4.80;99.90;;;;;;5078724;28;20419;-81
2023/03/08 07:37:03;;;;;;;11.20;8.00;;;5.10;99.90;;;;;;5084481;28;20393;-79
2023/03/08 07:39:29;;;;;;;12.67;8.20;;;5.10;99.90;;;;;;5084564;28;20394;-80
2023/03/08 07:41:54;;;;;;;11.23;8.27;;;5.30;99.90;;;;;;5084097;28;20439;-80
2023/03/08 07:44:20;;;;;;;11.23;8.17;;;5.40;99.90;;;;;;5091378;28;20472;-80
2023/03/08 07:46:46;;;;;;;10.17;7.97;;;5.30;1.00;;;;;;5092273;28;20790;-80
2023/03/08 07:49:12;;;;;;;9.53;7.53;;;5.40;94.80;;;;;;5097395;28;20747;-79
2023/03/08 07:51:38;;;;;;;10.13;7.50;;;5.60;1.00;;;;;;5084473;28;20384;-79
2023/03/08 07:54:03;;;;;;;7.40;6.40;;;5.90;45.30;;;;;;5088232;28;20389;-79
2023/03/08 07:56:29;;;;;;;4.30;3.30;;;6.30;99.90;;;;;;5091034;28;20386;-75
2023/03/08 07:58:56;;;;;;;2.80;2.50;;;6.80;99.90;;;;;;5090817;28;20378;-75
2023/03/08 08:01:22;;;;;;;2.90;2.30;;;7.60;1.00;;;;;;5089988;28;20394;-75
2023/03/08 08:03:48;;;;;;;2.03;1.80;;;7.70;1.00;;;;;;5090720;28;20378;-75
2023/03/08 08:06:14;;;;;;;1.20;1.10;;;8.30;1.00;;;;;;5090575;28;20385;-74
2023/03/08 08:08:40;;;;;;;1.42;1.10;;;8.40;5.50;;;;;;5090516;28;20398;-75
2023/03/08 08:11:16;;;;;;;1.10;0.83;;;8.40;1.00;;;;;;5090862;28;20743;-76
2023/03/08 08:13:41;;;;;;;1.02;0.90;;;8.60;5.50;;;;;;5090623;28;20382;-76
2023/03/08 08:16:07;;;;;;;1.00;0.90;;;8.60;99.90;;;;;;5090502;28;20427;-75
2023/03/08 08:18:33;;;;;;;2.20;1.33;;;9.00;99.90;;;;;;5090752;28;20383;-73
2023/03/08 08:21:08;;;;;;;2.15;1.20;;;9.00;99.90;;;;;;5090605;28;20469;-73
2023/03/08 08:23:34;;;;;;;2.08;1.00;;;9.10;1.00;;;;;;5084992;28;20427;-72
2023/03/08 08:26:02;;;;;;;1.63;0.90;;;8.90;1.00;;;;;;5087025;28;20410;-74
2023/03/08 08:28:28;;;;;;;1.70;1.00;;;9.00;1.00;;;;;;5090178;28;20806;-73
2023/03/08 08:31:02;;;;;;;1.30;0.80;;;8.80;1.00;;;;;;5090615;28;20459;-73
2023/03/08 08:33:29;;;;;;;3.67;1.20;;;9.40;99.90;;;;;;5090290;28;20434;-73
2023/03/08 08:35:55;;;;;;;1.20;0.82;;;9.30;1.00;;;;;;5090217;28;20374;-73
2023/03/08 08:38:21;;;;;;;0.80;0.80;;;9.30;1.00;;;;;;5089156;28;20440;-73
2023/03/08 08:40:47;;;;;;;1.50;1.30;;;9.40;99.90;;;;;;5090287;28;20406;-74
2023/03/08 08:43:13;;;;;;;1.10;0.80;;;9.50;1.00;;;;;;5089993;28;20797;-74
2023/03/08 08:45:45;;;;;;;1.00;0.90;;;9.70;1.00;;;;;;5089780;28;20385;-74
2023/03/08 08:48:11;;;;;;;0.98;0.70;;;9.60;1.00;;;;;;5090184;28;20382;-74
2023/03/08 08:50:41;;;;;;;0.90;0.70;;;9.70;1.00;;;;;;5090364;28;20389;-74
2023/03/08 08:53:08;;;;;;;0.98;0.55;;;10.00;99.90;;;;;;5090098;28;20431;-74
2023/03/08 08:55:34;;;;;;;0.85;0.70;;;9.90;1.00;;;;;;5090288;28;20382;-74
2023/03/08 08:58:01;;;;;;;0.80;0.50;;;9.50;1.00;;;;;;5077513;28;20398;-74
2023/03/08 09:00:27;;;;;;;0.70;0.68;;;9.90;1.00;;;;;;5069028;28;20384;-75
2023/03/08 09:02:52;;;;;;;0.75;0.50;;;9.60;1.00;;;;;;5082918;28;20421;-73
2023/03/08 09:05:18;;;;;;;0.70;0.52;;;9.80;99.90;;;;;;5091723;28;21073;-74
2023/03/08 09:07:44;;;;;;;2.50;0.90;;;9.80;99.90;;;;;;5092604;28;20465;-73
2023/03/08 09:10:10;;;;;;;0.90;0.50;;;9.40;1.00;;;;;;5094098;28;20406;-74
2023/03/08 09:12:36;;;;;;;0.70;0.50;;;10.00;99.90;;;;;;5094214;28;20418;-74
2023/03/08 09:15:02;;;;;;;0.90;0.63;;;10.00;1.00;;;;;;5093840;28;20886;-74
2023/03/08 09:17:28;;;;;;;1.20;0.50;;;10.40;1.00;;;;;;5093524;28;20939;-75
2023/03/08 09:19:53;;;;;;;0.60;0.50;;;10.10;1.20;;;;;;5093797;28;20469;-74
2023/03/08 09:22:19;;;;;;;1.65;0.80;;;10.40;1.00;;;;;;5092266;28;20397;-76
2023/03/08 09:24:47;;;;;;;0.95;0.80;;;10.50;1.00;;;;;;5092078;28;20803;-74
2023/03/08 09:27:12;;;;;;;2.60;0.80;;;10.40;1.00;;;;;;5093452;28;20406;-74
2023/03/08 09:29:38;;;;;;;0.70;0.50;;;10.20;99.90;;;;;;5093610;28;20452;-74
2023/03/08 09:32:04;;;;;;;1.10;0.90;;;10.10;99.90;;;;;;5093739;28;20817;-74
2023/03/08 09:34:30;;;;;;;0.80;0.60;;;10.30;1.00;;;;;;5091978;28;20402;-75
2023/03/08 09:36:55;;;;;;;1.10;0.90;;;10.10;99.90;;;;;;5093021;28;20390;-75
2023/03/08 09:39:21;;;;;;;1.50;0.60;;;9.50;99.90;;;;;;5093547;28;20869;-74
2023/03/08 09:41:58;;;;;;;0.90;0.70;;;9.90;99.90;;;;;;5093261;28;20414;-75
2023/03/08 09:44:42;;;;;;;2.10;0.80;;;10.10;1.00;;;;;;5093385;28;20389;-74
2023/03/08 09:47:14;;;;;;;1.00;0.90;;;10.30;1.00;;;;;;5091710;28;20379;-76
2023/03/08 09:49:43;;;;;;;2.00;1.30;;;10.50;1.00;;;;;;5093225;28;20859;-74
2023/03/08 09:52:28;;;;;;;0.85;0.85;;;10.30;1.00;;;;;;5093280;28;20385;-76
2023/03/08 09:54:55;;;;;;;1.00;0.63;;;10.70;1.00;;;;;;5092644;28;20393;-74
2023/03/08 09:57:29;;;;;;;0.90;0.70;;;10.20;1.00;;;;;;5092805;28;20819;-76
2023/03/08 10:00:01;;;;;;;2.00;0.77;;;10.20;1.00;;;;;;5091637;28;20394;-74
2023/03/08 10:02:50;;;;;;;1.50;0.80;;;9.90;1.00;;;;;;5092980;28;20451;-75
2023/03/08 10:05:34;;;;;;;0.80;0.70;;;10.80;1.00;;;;;;5092445;28;20850;-74
2023/03/08 10:08:08;;;;;;;0.80;0.70;;;10.40;1.00;;;;;;5093512;28;20366;-74
2023/03/08 10:10:40;;;;;;;1.30;0.90;;;10.50;1.00;;;;;;5091978;28;20390;-74
2023/03/08 10:13:18;;;;;;;1.30;1.20;;;10.50;1.00;;;;;;5092528;28;20400;-75
2023/03/08 10:15:48;;;;;;;1.20;1.08;;;10.50;1.00;;;;;;5092566;28;20392;-75
2023/03/08 10:18:33;;;;;;;3.00;1.10;;;10.50;1.00;;;;;;5093054;28;20491;-74
2023/03/08 10:21:00;;;;;;;1.20;0.80;;;10.80;1.00;;;;;;5092700;28;20410;-74
2023/03/08 10:23:31;;;;;;;1.00;0.90;;;11.00;1.00;;;;;;5092304;28;20374;-75
2023/03/08 10:25:57;;;;;;;1.90;0.90;;;11.00;1.00;;;;;;5092332;28;20389;-74
2023/03/08 10:28:25;;;;;;;1.83;1.30;;;10.50;1.00;;;;;;5092640;28;20752;-75
2023/03/08 10:30:52;;;;;;;1.00;0.90;;;10.50;1.00;;;;;;5091264;28;20388;-74
2023/03/08 10:33:19;;;;;;;1.60;1.20;;;10.50;1.00;;;;;;5092166;28;20426;-74
2023/03/08 10:36:05;;;;;;;3.25;1.75;;;10.80;1.00;;;;;;5092173;28;20392;-76
2023/03/08 10:38:33;;;;;;;1.90;1.50;;;12.00;1.00;;;;;;5092507;28;20424;-76
2023/03/08 10:41:13;;;;;;;1.40;1.30;;;10.70;1.00;;;;;;5092239;28;20818;-74
2023/03/08 10:43:45;;;;;;;1.42;1.20;;;11.00;1.00;;;;;;5070788;28;20384;-74
2023/03/08 10:46:17;;;;;;;2.17;1.33;;;11.10;1.00;;;;;;5071661;28;20471;-74
2023/03/08 10:48:43;;;;;;;1.75;1.40;;;11.10;1.00;;;;;;5071995;28;20384;-75
2023/03/08 10:51:21;;;;;;;1.60;1.20;;;11.20;1.00;;;;;;5070475;28;20396;-74
2023/03/08 10:54:04;;;;;;;1.70;1.60;;;10.40;48.40;;;;;;5071992;28;20379;-74
2023/03/08 10:56:34;;;;;;;1.92;1.40;;;10.60;59.10;;;;;;5085797;28;20471;-74
2023/03/08 10:59:00;;;;;;;2.00;1.30;;;10.50;74.50;;;;;;5092101;28;20400;-74
2023/03/08 11:01:51;;;;;;;2.67;1.90;;;10.90;99.90;;;;;;5091755;28;20402;-75
2023/03/08 11:04:19;;;;;;;1.90;1.50;;;10.50;99.90;;;;;;5090482;28;20382;-73
2023/03/08 11:06:45;;;;;;;1.50;1.30;;;10.60;99.90;;;;;;5091654;28;20857;-74
2023/03/08 11:09:25;;;;;;;1.80;1.60;;;10.40;99.90;;;;;;5090029;28;20381;-74
2023/03/08 11:11:51;;;;;;;2.20;1.60;;;10.70;99.90;;;;;;5090603;28;20382;-74
2023/03/08 11:14:16;;;;;;;2.20;1.70;;;10.60;99.90;;;;;;5091357;28;20536;-74
2023/03/08 11:16:50;;;;;;;2.15;1.80;;;11.60;99.90;;;;;;5091252;28;20378;-74
2023/03/08 11:19:48;;;;;;;1.60;1.50;;;10.60;99.90;;;;;;5091583;28;20461;-75
2023/03/08 11:22:25;;;;;;;2.00;1.80;;;10.40;99.90;;;;;;5091676;28;20429;-74
2023/03/08 11:24:59;;;;;;;1.70;1.60;;;10.50;99.90;;;;;;5091446;28;20369;-74
2023/03/08 11:27:47;;;;;;;1.65;1.48;;;10.50;99.90;;;;;;5090365;28;20394;-73
2023/03/08 11:30:31;;;;;;;2.63;1.70;;;10.40;99.90;;;;;;5091378;28;20386;-74
2023/03/08 11:32:59;;;;;;;2.58;1.80;;;10.70;99.90;;;;;;5091151;28;20432;-74
2023/03/08 11:35:49;;;;;;;2.40;1.80;;;11.00;99.90;;;;;;5091140;28;20382;-74
2023/03/08 11:38:17;;;;;;;3.60;1.70;;;11.00;99.90;;;;;;5091290;28;20393;-74
2023/03/08 11:41:17;;;;;;;2.10;1.50;;;11.20;91.90;;;;;;5090835;28;20405;-74
2023/03/08 11:44:17;;;;;;;2.20;1.48;;;11.60;1.00;;;;;;5090882;28;20399;-73
2023/03/08 11:47:01;;;;;;;1.83;1.40;;;11.90;1.00;;;;;;5090737;28;20445;-73
2023/03/08 11:49:32;;;;;;;2.17;1.50;;;11.40;1.00;;;;;;5092212;28;20380;-73
2023/03/08 11:52:35;;;;;;;1.00;0.90;;;11.60;1.00;;;;;;5091381;28;20792;-73
2023/03/08 11:55:27;;;;;;;2.20;1.10;;;11.40;1.00;;;;;;5090709;28;20427;-74
2023/03/08 11:58:06;;;;;;;1.35;1.10;;;11.60;1.00;;;;;;5082331;28;20891;-73
2023/03/08 12:00:40;;;;;;;0.90;0.70;;;11.80;1.00;;;;;;5090946;28;20409;-75
2023/03/08 12:03:14;;;;;;;1.40;1.10;;;11.90;1.00;;;;;;5090776;28;20436;-74
2023/03/08 12:05:46;;;;;;;1.20;0.90;;;11.60;1.00;;;;;;5090784;28;20386;-75
2023/03/08 12:08:34;;;;;;;1.10;0.98;;;12.20;1.00;;;;;;5089023;28;20423;-74
2023/03/08 12:11:10;;;;;;;1.23;0.90;;;12.20;1.00;;;;;;5090446;28;20474;-75
2023/03/08 12:13:39;;;;;;;1.20;0.70;;;12.50;1.00;;;;;;5090596;28;20377;-74
2023/03/08 12:16:20;;;;;;;1.80;0.93;;;12.20;1.00;;;;;;5088955;28;20399;-74
2023/03/08 12:19:22;;;;;;;1.30;0.80;;;12.00;1.00;;;;;;5090488;28;20411;-73
2023/03/08 12:21:56;;;;;;;1.20;0.80;;;12.70;1.00;;;;;;5090082;28;20484;-74
2023/03/08 12:24:46;;;;;;;1.20;0.90;;;12.60;1.00;;;;;;5090430;28;20788;-74
2023/03/08 12:27:28;;;;;;;2.67;1.07;;;12.40;1.00;;;;;;5089838;28;20390;-74
2023/03/08 12:30:00;;;;;;;1.02;0.80;;;12.30;1.00;;;;;;5090260;28;20382;-73
2023/03/08 12:32:26;;;;;;;1.00;0.70;;;12.50;1.00;;;;;;5089029;28;20394;-75
2023/03/08 12:35:22;;;;;;;2.92;0.77;;;12.60;1.00;;;;;;5089229;28;20393;-75
2023/03/08 12:38:14;;;;;;;0.60;0.50;;;12.50;1.00;;;;;;5090473;28;20393;-74
2023/03/08 12:40:50;;;;;;;0.70;0.47;;;12.40;1.00;;;;;;5049158;28;20499;-74
2023/03/08 12:43:18;;;;;;;1.10;0.50;;;12.40;1.00;;;;;;5074264;28;20391;-74
2023/03/08 12:46:08;;;;;;;1.40;0.70;;;12.30;1.00;;;;;;5074489;28;20372;-75
2023/03/08 12:48:46;;;;;;;0.90;0.60;;;11.90;1.00;;;;;;5074139;28;20861;-74
2023/03/08 12:51:12;;;;;;;2.50;1.00;;;12.40;1.00;;;;;;5074204;28;20384;-74
2023/03/08 12:53:44;;;;;;;1.13;0.60;;;12.80;1.00;;;;;;5091590;28;20390;-74
2023/03/08 12:56:10;;;;;;;2.10;0.90;;;12.60;1.00;;;;;;5093756;28;20433;-74
2023/03/08 12:58:46;;;;;;;1.30;1.20;;;12.30;1.00;;;;;;5094380;28;20436;-74
2023/03/08 13:01:34;;;;;;;1.10;0.80;;;12.00;1.00;;;;;;5092702;28;20938;-75
2023/03/08 13:04:02;;;;;;;1.48;0.90;;;12.30;1.00;;;;;;5092913;28;20373;-74
2023/03/08 13:06:52;;;;;;;3.50;0.80;;;12.50;1.00;;;;;;5093802;28;20382;-74
2023/03/08 13:09:40;;;;;;;0.95;0.65;;;12.30;1.00;;;;;;5093724;28;20389;-75
2023/03/08 13:12:14;;;;;;;1.20;0.63;;;12.20;1.00;;;;;;5092816;28;20428;-74